Lourdes, Canada
Current Conditions -  °F | °C
As of 2:00 PM on Tuesday 27 Jan 2015 (Local Time) from CYJT Reporting Station
Light Snow Light Snow  
Wind Chill: -6°   Ceiling: 2500
Heat Index: 12°   Visibility: 4mi
Dew Point:   Wind: 21mph
Humidity: 79%   Direction: 60°ENE
Pressure: 30.18"   Gusts: 28mph
Location:  48.65°N, 58.98°W
Report Text: CYJT 271700Z 06018G24KT 4SM R27/5500VP6000FT/U -SN DRSN BKN025 OVC080 M11/M14 A3018 RMK SC5AS3 PRESFR SLP221
Loading
Personal Weather Stations






























Interactive Weather Map New forecast layout! Learn more

10-Day Weather Forecast

Advertisements
Track Severe Weather on mobile